Time;durP1;ratioP1;P1;durP2;ratioP2;P2;SDS_P1;SDS_P2;PMS_P1;PMS_P2;Temp;Humidity;BMP_temperature;BMP_pressure;BME280_temperature;BME280_humidity;BME280_pressure;Samples;Min_cycle;Max_cycle;Signal;HPM_P1;HPM_P2
2022/04/21 00:00:12;;;;;;;7.30;5.50;;;;;;;12.91;39.00;96880.84;5071062;28;20488;-71
2022/04/21 00:02:38;;;;;;;6.87;5.80;;;;;;;12.86;39.33;96877.88;5069909;28;20425;-71
2022/04/21 00:05:05;;;;;;;10.30;5.50;;;;;;;12.82;39.21;96874.81;5071202;28;20444;-72
2022/04/21 00:07:30;;;;;;;6.47;5.77;;;;;;;12.62;39.81;96879.69;5053165;28;20907;-72
2022/04/21 00:09:56;;;;;;;11.93;5.10;;;;;;;12.70;39.58;96871.78;5074881;28;20456;-73
2022/04/21 00:12:21;;;;;;;6.23;5.33;;;;;;;12.70;39.80;96876.19;5073700;28;20201;-71
2022/04/21 00:14:47;;;;;;;6.80;5.33;;;;;;;12.70;39.71;96871.78;5078019;28;20209;-72
2022/04/21 00:17:12;;;;;;;15.30;5.53;;;;;;;12.61;39.83;96867.53;5070842;28;20192;-73
2022/04/21 00:19:38;;;;;;;6.30;5.23;;;;;;;12.55;40.59;96865.59;5070420;28;20202;-71
2022/04/21 00:24:48;;;;;;;9.83;5.33;;;;;;;12.47;40.85;96863.03;5069854;28;20260;-72
2022/04/21 00:27:13;;;;;;;7.43;5.33;;;;;;;12.49;40.76;96850.50;5070859;28;20851;-72
2022/04/21 00:29:39;;;;;;;9.73;5.47;;;;;;;12.24;40.90;96858.53;5070745;28;20680;-72
2022/04/21 00:32:05;;;;;;;7.63;5.13;;;;;;;12.27;41.08;96852.94;5070603;28;20178;-71
2022/04/21 00:34:33;;;;;;;6.83;5.30;;;;;;;12.26;41.08;96852.13;5079083;28;20201;-72
2022/04/21 00:36:59;;;;;;;8.07;5.97;;;;;;;12.24;41.03;96845.38;5070286;28;20251;-72
2022/04/21 00:39:25;;;;;;;7.87;6.00;;;;;;;12.03;41.36;96849.44;5070319;28;20464;-71
2022/04/21 00:42:00;;;;;;;6.90;6.03;;;;;;;12.20;41.12;96854.63;5070972;28;20183;-72
2022/04/21 00:44:27;;;;;;;10.17;6.30;;;;;;;12.06;41.53;96858.75;5070615;28;20265;-73
2022/04/21 00:46:53;;;;;;;6.43;5.70;;;;;;;12.09;41.41;96848.75;5074519;28;20428;-71
2022/04/21 00:49:20;;;;;;;7.03;5.77;;;;;;;12.08;41.64;96852.38;5075666;28;20989;-71
2022/04/21 00:51:46;;;;;;;6.40;5.77;;;;;;;12.07;41.76;96847.28;5074661;28;20424;-70
2022/04/21 00:54:13;;;;;;;6.37;4.90;;;;;;;11.90;42.20;96847.31;5073150;28;20509;-69
2022/04/21 00:56:39;;;;;;;10.90;5.97;;;;;;;12.00;41.95;96844.50;5056584;28;20240;-72
2022/04/21 00:59:06;;;;;;;8.97;6.23;;;;;;;11.90;42.05;96849.13;5075221;28;20907;-72
2022/04/21 01:04:18;;;;;;;7.67;6.27;;;;;;;11.82;42.48;96853.41;5074569;28;20448;-73
2022/04/21 01:06:45;;;;;;;8.20;5.87;;;;;;;11.88;42.53;96843.22;5074681;28;20822;-72
2022/04/21 01:09:11;;;;;;;8.10;5.63;;;;;;;11.83;42.71;96844.56;5072578;28;20498;-71
2022/04/21 01:11:37;;;;;;;7.50;5.70;;;;;;;11.92;42.43;96844.50;5074266;28;20417;-72
2022/04/21 01:14:03;;;;;;;9.00;5.97;;;;;;;12.00;42.21;96844.50;5074484;28;20207;-71
2022/04/21 01:16:29;;;;;;;10.13;6.20;;;;;;;12.06;42.28;96835.97;5079516;28;20466;-71
2022/04/21 01:18:56;;;;;;;10.27;6.60;;;;;;;12.03;42.44;96833.66;5087561;28;20424;-71
2022/04/21 01:21:21;;;;;;;7.63;5.63;;;;;;;11.98;42.51;96841.22;5040207;28;20206;-71
2022/04/21 01:23:47;;;;;;;6.80;5.63;;;;;;;11.96;42.22;96832.69;5072862;28;20427;-70
2022/04/21 01:26:14;;;;;;;7.80;6.30;;;;;;;11.94;42.28;96840.72;5080975;28;20637;-73
2022/04/21 01:28:40;;;;;;;6.47;5.87;;;;;;;11.77;42.55;96834.72;5093610;28;20185;-71
2022/04/21 01:31:06;;;;;;;8.37;6.23;;;;;;;11.79;42.85;96840.63;5079769;28;20471;-72
2022/04/21 01:33:32;;;;;;;7.30;6.60;;;;;;;11.74;42.76;96835.03;5073744;28;20463;-72
2022/04/21 01:35:57;;;;;;;7.17;6.43;;;;;;;11.60;43.25;96833.09;5074955;28;20205;-73
2022/04/21 01:41:09;;;;;;;9.40;6.70;;;;;;;11.51;43.24;96833.13;5075666;28;20228;-70
2022/04/21 01:43:37;;;;;;;17.77;5.97;;;;;;;11.49;43.35;96827.22;5072424;28;20931;-72
2022/04/21 01:46:03;;;;;;;9.97;6.73;;;;;;;11.45;43.58;96832.97;5071346;28;20453;-70
2022/04/21 01:48:29;;;;;;;8.43;6.13;;;;;;;11.49;43.51;96824.59;5074515;28;20895;-71
2022/04/21 01:50:55;;;;;;;12.10;6.57;;;;;;;11.43;43.70;96830.53;5072386;28;20185;-71
2022/04/21 01:53:20;;;;;;;8.43;6.70;;;;;;;11.47;43.45;96829.19;5073514;28;20183;-73
2022/04/21 01:55:46;;;;;;;7.43;6.60;;;;;;;11.45;43.87;96825.09;5076052;28;20193;-71
2022/04/21 01:58:12;;;;;;;7.30;6.60;;;;;;;11.39;43.88;96826.59;5077573;28;20187;-71
2022/04/21 02:00:38;;;;;;;8.67;6.33;;;;;;;11.37;43.87;96825.94;5075021;28;20268;-71
2022/04/21 02:03:04;;;;;;;8.00;6.23;;;;;;;11.28;43.92;96824.31;5054679;28;20432;-72
2022/04/21 02:05:29;;;;;;;8.53;6.30;;;;;;;11.25;44.27;96822.03;5073031;28;20447;-72
2022/04/21 02:07:54;;;;;;;8.10;6.53;;;;;;;11.17;44.45;96828.94;5073253;28;20186;-71
2022/04/21 02:10:21;;;;;;;7.43;6.63;;;;;;;11.10;44.69;96825.31;5072885;28;20232;-72
2022/04/21 02:12:47;;;;;;;9.00;7.17;;;;;;;11.20;44.54;96819.91;5071854;28;20182;-70
2022/04/21 02:15:13;;;;;;;17.10;7.50;;;;;;;11.17;44.53;96813.19;5073171;28;20539;-70
2022/04/21 02:17:39;;;;;;;9.73;7.10;;;;;;;11.15;44.73;96815.16;5072289;28;20927;-72
2022/04/21 02:20:07;;;;;;;7.77;6.80;;;;;;;11.12;44.78;96815.47;5072397;28;20457;-74
2022/04/21 02:22:35;;;;;;;8.53;7.23;;;;;;;11.20;44.60;96818.13;5072396;28;20269;-70
2022/04/21 02:25:02;;;;;;;8.17;7.10;;;;;;;11.21;44.46;96814.47;5072948;28;20447;-70
2022/04/21 02:27:28;;;;;;;10.07;8.33;;;;;;;11.21;44.70;96811.84;5072745;28;20430;-73
2022/04/21 02:29:54;;;;;;;9.53;7.73;;;;;;;11.27;44.85;96806.94;5072615;28;20420;-71
2022/04/21 02:32:20;;;;;;;8.10;6.63;;;;;;;11.14;44.66;96808.28;5072520;28;20186;-71
2022/04/21 02:34:46;;;;;;;8.07;7.27;;;;;;;11.16;44.99;96810.72;5072526;28;20445;-70
2022/04/21 02:37:12;;;;;;;10.13;7.57;;;;;;;11.17;44.78;96804.47;5071894;28;20440;-72
2022/04/21 02:39:37;;;;;;;8.90;7.10;;;;;;;11.00;44.59;96803.69;5074648;28;20894;-71
2022/04/21 02:42:04;;;;;;;9.10;7.20;;;;;;;10.96;45.14;96807.63;5091266;28;20182;-70
2022/04/21 02:44:29;;;;;;;9.30;7.57;;;;;;;11.04;45.11;96802.38;5090561;28;20214;-69
2022/04/21 02:46:55;;;;;;;8.43;7.53;;;;;;;10.95;45.13;96798.94;5072631;28;20424;-70
2022/04/21 02:49:20;;;;;;;11.13;7.40;;;;;;;10.99;45.01;96788.94;5073489;28;20265;-72
2022/04/21 02:51:46;;;;;;;12.70;8.63;;;;;;;11.04;44.98;96792.69;5071325;28;20186;-72
2022/04/21 02:59:41;;;;;;;11.47;7.63;;;;;;;10.94;45.18;96780.75;5071445;28;20460;-72
2022/04/21 03:02:06;;;;;;;8.93;7.20;;;;;;;10.90;45.48;96783.72;5072355;28;20949;-70
2022/04/21 03:04:32;;;;;;;9.00;7.63;;;;;;;10.91;45.67;96782.72;5080251;28;20456;-71
2022/04/21 03:06:57;;;;;;;10.90;7.60;;;;;;;10.91;45.18;96785.34;5071720;28;20182;-71
2022/04/21 03:09:23;;;;;;;11.80;8.30;;;;;;;10.79;45.34;96781.41;5071008;28;20186;-71
2022/04/21 03:11:48;;;;;;;15.77;8.50;;;;;;;10.87;45.42;96784.03;5071277;28;20190;-70
2022/04/21 03:14:15;;;;;;;10.40;8.20;;;;;;;10.83;45.76;96780.13;5071942;28;20665;-71
2022/04/21 03:16:41;;;;;;;10.70;8.10;;;;;;;10.66;45.97;96789.75;5071113;28;20425;-70
2022/04/21 03:19:07;;;;;;;10.93;8.47;;;;;;;10.73;46.02;96784.69;5071594;28;20443;-71
2022/04/21 03:24:19;;;;;;;10.30;8.00;;;;;;;10.70;45.83;96770.09;5070400;28;20213;-72
2022/04/21 03:26:48;;;;;;;10.10;8.47;;;;;;;10.68;46.15;96789.59;5073134;28;20958;-71
2022/04/21 03:29:14;;;;;;;11.47;8.70;;;;;;;10.57;46.08;96781.09;5072010;28;20429;-70
2022/04/21 03:31:42;;;;;;;14.60;8.90;;;;;;;10.59;46.66;96784.34;5071696;28;20826;-70
2022/04/21 03:34:13;;;;;;;9.17;8.27;;;;;;;10.59;46.64;96778.28;5071456;28;20206;-71
2022/04/21 03:36:48;;;;;;;11.50;8.50;;;;;;;10.61;46.28;96784.19;5077877;28;20439;-70
2022/04/21 03:39:19;;;;;;;10.53;9.23;;;;;;;10.49;46.61;96773.19;5083566;28;20989;-71
2022/04/21 03:41:44;;;;;;;9.70;8.70;;;;;;;10.52;46.56;96778.13;5054116;28;20460;-72
2022/04/21 03:44:11;;;;;;;14.97;9.30;;;;;;;10.47;46.82;96769.91;5057721;28;21051;-72
2022/04/21 03:46:37;;;;;;;9.87;8.87;;;;;;;10.43;46.80;96773.88;5070287;28;20202;-71
2022/04/21 03:49:06;;;;;;;15.70;9.50;;;;;;;10.23;47.24;96758.41;5071185;28;20432;-71
2022/04/21 03:51:32;;;;;;;11.47;9.13;;;;;;;10.32;47.06;96763.66;5081572;28;20421;-72
2022/04/21 03:53:58;;;;;;;12.67;8.60;;;;;;;10.32;47.15;96767.09;5082626;28;20503;-70
2022/04/21 03:56:23;;;;;;;13.20;8.57;;;;;;;10.51;46.64;96767.81;5065258;28;20182;-70
2022/04/21 03:58:49;;;;;;;8.60;7.80;;;;;;;10.51;46.39;96770.44;5077888;28;20936;-71
2022/04/21 04:01:15;;;;;;;13.70;9.63;;;;;;;10.43;46.61;96773.88;5071180;28;20217;-70
2022/04/21 04:03:42;;;;;;;10.77;9.33;;;;;;;10.43;46.58;96773.88;5082845;28;20416;-72
2022/04/21 04:10:51;;;;;;;11.87;8.63;;;;;;;10.38;47.09;96773.53;5082951;28;20251;-71
2022/04/21 04:11:38;;;;;;;11.27;8.70;;;;;;;10.28;47.14;96778.88;5083302;28;20424;-71
2022/04/21 04:14:05;;;;;;;9.90;8.90;;;;;;;10.32;47.41;96779.38;5075880;28;20457;-72
2022/04/21 04:16:35;;;;;;;13.70;9.37;;;;;;;10.34;47.28;96780.00;5080421;28;20188;-71
2022/04/21 04:19:03;;;;;;;13.80;11.83;;;;;;;10.30;47.30;96777.75;5079483;28;20444;-71
2022/04/21 04:21:30;;;;;;;16.90;12.70;;;;;;;10.29;47.47;96783.97;5092752;28;20460;-70
2022/04/21 04:23:57;;;;;;;14.43;12.83;;;;;;;10.30;47.61;96774.28;5084800;28;20934;-71
2022/04/21 04:26:22;;;;;;;14.53;13.03;;;;;;;10.32;47.74;96776.75;5096966;28;20442;-71
2022/04/21 04:28:49;;;;;;;14.67;11.87;;;;;;;10.22;47.57;96772.47;5083845;28;20425;-71
2022/04/21 04:31:15;;;;;;;14.40;11.20;;;;;;;10.33;47.77;96778.41;5079248;28;20170;-72
2022/04/21 04:33:40;;;;;;;12.47;10.13;;;;;;;10.30;47.12;96775.13;5095373;28;20428;-73
2022/04/21 04:36:07;;;;;;;14.63;9.53;;;;;;;10.22;47.15;96776.91;5094364;28;20501;-71
2022/04/21 04:38:32;;;;;;;15.00;10.63;;;;;;;10.30;47.53;96775.13;5079911;28;20190;-74
2022/04/21 04:42:16;;;;;;;11.37;10.17;;;;;;;10.21;47.20;96773.44;5093400;28;20456;-70
2022/04/21 04:43:43;;;;;;;18.90;12.90;;;;;;;10.15;47.48;96779.34;5083196;28;20315;-72
2022/04/21 04:48:54;;;;;;;14.90;12.30;;;;;;;10.24;47.58;96773.13;5076559;28;20251;-71
2022/04/21 04:51:19;;;;;;;15.90;12.10;;;;;;;10.30;47.68;96774.28;5088253;28;20413;-71
2022/04/21 04:53:45;;;;;;;12.23;11.03;;;;;;;10.36;47.50;96770.19;5088978;28;20938;-70
2022/04/21 04:56:10;;;;;;;13.17;10.83;;;;;;;10.28;47.87;96771.00;5083767;28;20174;-71
2022/04/21 04:58:36;;;;;;;12.70;11.30;;;;;;;10.37;47.69;96777.09;5080293;28;20217;-73
2022/04/21 05:01:03;;;;;;;12.40;10.90;;;;;;;10.30;48.30;96780.38;5068236;28;20217;-71
2022/04/21 05:03:29;;;;;;;15.50;11.70;;;;;;;10.11;48.65;96771.00;5077109;28;20344;-71
2022/04/21 05:05:54;;;;;;;14.70;11.20;;;;;;;10.20;48.68;96769.22;5086808;28;20522;-70
2022/04/21 05:08:20;;;;;;;13.10;10.90;;;;;;;10.26;48.25;96773.78;5085941;28;20178;-70
2022/04/21 05:10:45;;;;;;;15.00;12.23;;;;;;;10.26;48.10;96765.13;5078186;28;20248;-71
2022/04/21 05:13:11;;;;;;;14.53;11.87;;;;;;;10.39;48.28;96777.78;5086045;28;20612;-74
2022/04/21 05:15:37;;;;;;;15.30;13.20;;;;;;;10.36;48.39;96773.66;5074770;28;20221;-71
2022/04/21 05:18:02;;;;;;;17.83;13.43;;;;;;;10.40;48.61;96776.81;5079053;28;20190;-71
2022/04/21 05:20:28;;;;;;;17.63;13.00;;;;;;;10.48;48.31;96774.19;5081303;28;20247;-71
2022/04/21 05:23:04;;;;;;;19.27;13.80;;;;;;;10.44;48.29;96772.88;5081180;28;20236;-71
2022/04/21 05:25:31;;;;;;;14.57;12.70;;;;;;;10.48;48.86;96776.00;5087150;28;20205;-70
2022/04/21 05:27:57;;;;;;;16.97;13.80;;;;;;;10.56;48.63;96779.44;5094203;28;20439;-68
2022/04/21 05:33:10;;;;;;;17.00;13.87;;;;;;;10.70;49.24;96777.16;5078860;28;20490;-68
2022/04/21 05:35:36;;;;;;;16.77;12.83;;;;;;;10.77;49.50;96775.50;5080980;28;20831;-69
2022/04/21 05:38:02;;;;;;;20.03;14.80;;;;;;;10.79;49.38;96765.69;5072026;28;20453;-70
2022/04/21 05:40:27;;;;;;;20.17;15.40;;;;;;;10.89;49.29;96768.97;5091474;28;20461;-69
2022/04/21 05:42:55;;;;;;;27.07;15.63;;;;;;;10.94;49.16;96768.47;5084321;28;20432;-70
2022/04/21 05:45:21;;;;;;;20.03;15.97;;;;;;;11.11;48.86;96766.63;5071382;28;20719;-71
2022/04/21 05:47:47;;;;;;;17.80;15.93;;;;;;;11.11;48.65;96768.44;5079397;28;20979;-69
2022/04/21 05:50:14;;;;;;;18.50;15.73;;;;;;;11.22;48.77;96762.84;5090353;28;20889;-68
2022/04/21 05:52:40;;;;;;;22.17;16.73;;;;;;;11.28;48.54;96764.78;5093480;28;20428;-68
2022/04/21 05:55:06;;;;;;;23.23;16.40;;;;;;;11.37;48.36;96765.59;5091431;28;20452;-70
2022/04/21 05:57:32;;;;;;;16.67;14.97;;;;;;;11.37;48.56;96763.81;5081498;28;20957;-70
2022/04/21 05:59:57;;;;;;;21.17;15.37;;;;;;;11.52;48.27;96763.13;5085040;28;20455;-68
2022/04/21 06:02:23;;;;;;;17.80;14.40;;;;;;;11.72;47.73;96765.31;5093515;28;20541;-68
2022/04/21 06:04:48;;;;;;;16.07;13.57;;;;;;;11.96;47.15;96770.47;5093899;28;20259;-71
2022/04/21 06:07:14;;;;;;;16.50;13.70;;;;;;;12.18;46.52;96752.31;5086325;28;20182;-73
2022/04/21 06:09:41;;;;;;;14.37;12.90;;;;;;;12.29;45.90;96753.75;5084836;28;20184;-72
2022/04/21 06:12:09;;;;;;;20.80;14.70;;;;;;;12.42;45.91;96756.63;5093692;28;20461;-70
2022/04/21 06:14:38;;;;;;;15.53;13.93;;;;;;;12.48;45.79;96751.63;5084758;28;20491;-70
2022/04/21 06:17:04;;;;;;;16.00;12.20;;;;;;;12.66;45.77;96754.78;5070648;28;20444;-73
2022/04/21 06:19:29;;;;;;;16.00;13.50;;;;;;;12.99;45.77;96749.25;5081414;28;20514;-72
2022/04/21 06:21:55;;;;;;;19.53;12.53;;;;;;;13.29;45.18;96738.75;5092962;28;20952;-73
2022/04/21 06:24:20;;;;;;;19.90;15.20;;;;;;;13.50;43.83;96743.34;5080677;28;20258;-72
2022/04/21 06:26:46;;;;;;;18.73;14.23;;;;;;;13.71;43.41;96747.03;5093119;28;20178;-72
2022/04/21 06:29:11;;;;;;;15.67;13.40;;;;;;;13.85;42.78;96745.41;5091975;28;20592;-72
2022/04/21 06:31:37;;;;;;;18.40;14.73;;;;;;;13.94;42.20;96744.28;5092414;28;20185;-69
2022/04/21 06:34:03;;;;;;;24.13;14.30;;;;;;;14.10;41.88;96745.06;5092987;28;20656;-69
2022/04/21 06:36:28;;;;;;;17.53;13.90;;;;;;;14.23;42.02;96741.75;5092448;28;20197;-70
2022/04/21 06:38:54;;;;;;;19.43;14.67;;;;;;;14.29;41.53;96746.28;5091386;28;20830;-68
2022/04/21 06:41:19;;;;;;;15.67;13.47;;;;;;;14.39;41.18;96749.44;5092489;28;20206;-69
2022/04/21 06:49:12;;;;;;;16.07;14.37;;;;;;;14.76;40.20;96745.94;5090346;28;20840;-71
2022/04/21 06:51:40;;;;;;;18.23;15.40;;;;;;;14.87;40.06;96748.84;5092783;28;20432;-69
2022/04/21 06:54:06;;;;;;;16.20;14.40;;;;;;;15.03;39.95;96745.16;5085507;28;20197;-71
2022/04/21 06:56:31;;;;;;;18.20;14.57;;;;;;;15.10;39.61;96747.84;5080693;28;20436;-69
2022/04/21 06:58:57;;;;;;;22.30;14.83;;;;;;;15.18;39.08;96739.75;5092624;28;20261;-68
2022/04/21 07:01:23;;;;;;;24.57;15.40;;;;;;;15.28;39.04;96741.22;5089684;28;20205;-69
2022/04/21 07:03:48;;;;;;;17.07;13.97;;;;;;;15.42;38.91;96753.50;5091990;28;20188;-69
2022/04/21 07:06:14;;;;;;;18.47;14.10;;;;;;;15.50;38.65;96745.41;5091734;28;20704;-70
2022/04/21 07:08:40;;;;;;;16.47;13.87;;;;;;;15.66;38.31;96746.94;5048641;28;20181;-69
2022/04/21 07:11:05;;;;;;;21.43;15.40;;;;;;;15.76;37.83;96746.56;5034205;28;20308;-69
2022/04/21 07:13:32;;;;;;;15.30;13.70;;;;;;;15.90;37.24;96754.59;5081263;28;20556;-69
2022/04/21 07:15:57;;;;;;;21.73;13.97;;;;;;;15.95;37.44;96752.97;5071017;28;20198;-69
2022/04/21 07:18:23;;;;;;;15.77;14.20;;;;;;;16.10;37.54;96750.19;5089608;28;20431;-69
2022/04/21 07:20:48;;;;;;;15.30;13.70;;;;;;;16.27;37.06;96744.53;5087619;28;20279;-69
2022/04/21 07:23:13;;;;;;;15.07;13.57;;;;;;;16.39;36.49;96755.34;5082078;28;20182;-68
2022/04/21 07:25:39;;;;;;;15.97;13.90;;;;;;;16.49;36.46;96750.47;5091303;28;20262;-71
2022/04/21 07:28:06;;;;;;;21.17;14.93;;;;;;;16.58;36.00;96751.13;5091692;28;20323;-69
2022/04/21 07:30:31;;;;;;;15.60;13.97;;;;;;;16.55;35.72;96743.56;5090440;28;20269;-69
2022/04/21 07:32:57;;;;;;;17.13;13.93;;;;;;;16.51;35.62;96740.53;5092185;28;20514;-69
2022/04/21 07:35:24;;;;;;;19.30;13.97;;;;;;;16.61;35.75;96745.44;5083611;28;20209;-69
2022/04/21 07:37:50;;;;;;;16.30;12.67;;;;;;;16.74;35.95;96744.63;5091877;28;20572;-71
2022/04/21 07:40:15;;;;;;;18.47;13.73;;;;;;;16.85;35.59;96737.91;5083232;28;20467;-69
2022/04/21 07:42:44;;;;;;;16.90;13.63;;;;;;;16.83;35.68;96735.44;5074651;28;20182;-69
2022/04/21 07:45:10;;;;;;;15.40;12.87;;;;;;;16.86;35.39;96736.91;5075518;28;20272;-69
2022/04/21 07:47:35;;;;;;;16.63;14.10;;;;;;;17.03;35.11;96735.47;5074189;28;20446;-69
2022/04/21 07:50:01;;;;;;;15.20;13.60;;;;;;;17.10;34.94;96739.97;5089696;28;20271;-70
2022/04/21 07:55:25;;;;;;;13.93;12.53;;;;;;;17.19;34.64;96730.78;5089826;28;20579;-68
2022/04/21 07:57:55;;;;;;;19.63;13.50;;;;;;;17.14;34.62;96734.03;5091756;28;20771;-68
2022/04/21 08:00:22;;;;;;;14.83;13.17;;;;;;;17.29;34.47;96739.09;5088218;28;20456;-70
2022/04/21 08:02:48;;;;;;;17.07;13.40;;;;;;;17.45;34.27;96734.41;5083723;28;20424;-71
2022/04/21 08:05:19;;;;;;;14.70;13.17;;;;;;;17.62;34.37;96724.16;5075130;28;20460;-70
2022/04/21 08:07:45;;;;;;;15.00;12.80;;;;;;;17.74;33.97;96733.09;5076001;28;20928;-69
2022/04/21 08:10:11;;;;;;;14.37;12.50;;;;;;;17.77;34.04;96731.84;5082964;28;20511;-70
2022/04/21 08:12:51;;;;;;;16.03;12.70;;;;;;;17.93;33.30;96734.03;5091024;28;20247;-70
2022/04/21 08:15:26;;;;;;;14.53;12.57;;;;;;;18.11;33.42;96740.50;5089934;28;20448;-70
2022/04/21 08:17:55;;;;;;;15.70;13.87;;;;;;;18.25;32.93;96731.47;5075800;28;20427;-71
2022/04/21 08:20:22;;;;;;;13.43;11.67;;;;;;;18.36;32.94;96727.31;5090181;28;20816;-70
2022/04/21 08:22:48;;;;;;;14.10;11.80;;;;;;;18.42;32.66;96722.97;5088898;28;20467;-69
2022/04/21 08:33:25;;;;;;;11.60;10.40;;;;;;;19.23;31.53;96711.75;5082093;28;21140;-69
2022/04/21 08:35:51;;;;;;;15.10;9.67;;;;;;;19.48;31.01;96712.50;5091590;28;20458;-70
2022/04/21 08:38:17;;;;;;;11.40;10.20;;;;;;;19.52;30.27;96712.06;5082441;28;20185;-70
2022/04/21 08:40:51;;;;;;;12.00;10.20;;;;;;;19.61;30.26;96708.06;5083253;28;20893;-69
2022/04/21 08:43:16;;;;;;;10.73;9.60;;;;;;;19.82;30.08;96713.97;5082007;28;20190;-70
2022/04/21 08:45:43;;;;;;;10.50;9.40;;;;;;;19.97;29.37;96711.75;5090387;28;21015;-70
2022/04/21 08:48:14;;;;;;;13.53;9.00;;;;;;;19.87;29.72;96714.13;5075399;28;20293;-69
2022/04/21 08:50:40;;;;;;;12.97;9.17;;;;;;;20.08;29.25;96710.19;5075027;28;20423;-69
2022/04/21 08:53:06;;;;;;;15.33;8.90;;;;;;;20.28;29.58;96712.59;5091113;28;20917;-70
2022/04/21 08:55:32;;;;;;;9.53;8.73;;;;;;;20.52;29.32;96709.97;5081422;28;20527;-71
2022/04/21 08:57:59;;;;;;;14.30;8.70;;;;;;;20.69;29.43;96707.47;5091017;28;20930;-69
2022/04/21 09:00:24;;;;;;;14.03;10.00;;;;;;;20.62;28.70;96712.88;5079750;28;20983;-69
2022/04/21 09:02:50;;;;;;;11.60;9.00;;;;;;;20.61;29.04;96710.44;5078266;28;20421;-69
2022/04/21 09:05:16;;;;;;;10.50;9.03;;;;;;;20.67;28.91;96710.34;5088216;28;20208;-72
2022/04/21 09:07:46;;;;;;;11.23;10.13;;;;;;;20.83;28.60;96716.06;5086346;28;20432;-68
2022/04/21 09:10:13;;;;;;;10.83;9.13;;;;;;;20.97;28.45;96704.16;5094339;28;20174;-69
2022/04/21 09:12:44;;;;;;;10.87;9.27;;;;;;;21.00;28.14;96702.88;5085499;28;20427;-69
2022/04/21 09:15:17;;;;;;;10.47;9.37;;;;;;;21.10;27.81;96700.47;5094170;28;20535;-68
2022/04/21 09:17:45;;;;;;;11.63;9.20;;;;;;;20.96;27.79;96699.88;5082733;28;20907;-69
2022/04/21 09:20:13;;;;;;;16.33;9.60;;;;;;;21.10;28.02;96699.63;5078187;28;20467;-70
2022/04/21 09:22:47;;;;;;;10.90;9.80;;;;;;;21.12;28.03;96702.88;5073841;28;20428;-69
2022/04/21 09:25:13;;;;;;;9.97;8.97;;;;;;;21.25;27.48;96707.97;5090387;28;20440;-70
2022/04/21 09:27:38;;;;;;;9.60;8.40;;;;;;;21.44;26.44;96691.84;5094155;28;21017;-70
2022/04/21 09:30:04;;;;;;;11.37;8.80;;;;;;;21.62;26.82;96693.56;5087250;28;20692;-70
2022/04/21 09:32:30;;;;;;;9.33;8.53;;;;;;;21.81;25.53;96696.06;5089152;28;20283;-70
2022/04/21 09:34:56;;;;;;;11.03;9.00;;;;;;;21.50;25.81;96693.56;5081708;28;20452;-70
2022/04/21 09:37:22;;;;;;;11.57;8.97;;;;;;;21.59;26.00;96684.19;5090080;28;20197;-70
2022/04/21 09:39:51;;;;;;;11.10;10.00;;;;;;;21.60;26.82;96685.81;5085467;28;20464;-70
2022/04/21 09:42:27;;;;;;;12.37;9.10;;;;;;;21.83;26.58;96689.44;5086469;28;20187;-70
2022/04/21 09:47:48;;;;;;;12.00;9.57;;;;;;;21.90;26.60;96683.97;5088084;28;20519;-71
2022/04/21 09:50:14;;;;;;;9.70;8.70;;;;;;;22.06;26.59;96671.72;5091138;28;20562;-70
2022/04/21 09:52:52;;;;;;;11.80;8.43;;;;;;;22.13;26.26;96669.75;5077088;28;20182;-70
2022/04/21 09:55:30;;;;;;;11.27;8.43;;;;;;;22.20;26.30;96662.38;5073815;28;20452;-69
2022/04/21 09:58:06;;;;;;;10.63;9.53;;;;;;;22.19;26.36;96663.44;5093922;28;20469;-68
2022/04/21 10:00:34;;;;;;;10.23;9.10;;;;;;;22.35;26.35;96656.53;5090979;28;20459;-70
2022/04/21 10:03:00;;;;;;;10.40;8.73;;;;;;;22.47;26.23;96653.00;5093420;28;20439;-70
2022/04/21 10:05:26;;;;;;;13.10;8.97;;;;;;;22.69;26.72;96645.03;5093020;28;20458;-70
2022/04/21 10:07:53;;;;;;;10.43;7.93;;;;;;;22.73;27.15;96651.53;5084073;28;20423;-70
2022/04/21 10:10:18;;;;;;;11.77;8.53;;;;;;;22.84;26.02;96645.28;5084200;28;20424;-70
2022/04/21 10:12:44;;;;;;;9.07;8.23;;;;;;;22.78;25.48;96656.97;5093406;28;20875;-70
2022/04/21 10:15:10;;;;;;;13.07;9.17;;;;;;;22.67;25.56;96653.31;5093473;28;20212;-70
2022/04/21 10:17:36;;;;;;;10.00;8.53;;;;;;;22.66;25.89;96646.34;5085334;28;20693;-71
2022/04/21 10:20:03;;;;;;;8.57;7.67;;;;;;;22.84;25.71;96637.25;5092217;28;20462;-71
2022/04/21 10:22:32;;;;;;;12.80;8.50;;;;;;;22.92;25.84;96636.03;5091429;28;20423;-69
2022/04/21 10:24:58;;;;;;;8.80;7.90;;;;;;;22.58;25.66;96629.91;5079888;28;20450;-69
2022/04/21 10:27:39;;;;;;;8.30;7.50;;;;;;;22.83;26.25;96627.63;5083180;28;20420;-69
2022/04/21 10:30:12;;;;;;;7.90;7.20;;;;;;;22.72;25.38;96631.22;5087365;28;20189;-69
2022/04/21 10:32:53;;;;;;;11.70;7.70;;;;;;;22.71;25.51;96624.25;5069978;28;20416;-70
2022/04/21 10:35:27;;;;;;;7.97;7.17;;;;;;;22.08;26.22;96621.63;5092872;28;20533;-69
2022/04/21 10:38:22;;;;;;;8.60;7.90;;;;;;;22.40;26.06;96618.41;5087983;28;20452;-69
2022/04/21 10:40:57;;;;;;;9.53;8.30;;;;;;;22.10;26.50;96614.19;5095666;28;20470;-69
2022/04/21 10:43:23;;;;;;;8.20;7.40;;;;;;;22.47;26.55;96616.41;5101265;28;20427;-69
2022/04/21 10:46:05;;;;;;;8.33;7.63;;;;;;;22.45;26.16;96605.16;5102079;28;20504;-70
2022/04/21 10:48:41;;;;;;;8.00;7.20;;;;;;;22.46;26.19;96589.97;5106545;28;20803;-70
2022/04/21 10:51:06;;;;;;;8.97;7.30;;;;;;;22.00;26.23;96603.34;5110468;28;20437;-69
2022/04/21 10:59:30;;;;;;;7.67;6.97;;;;;;;21.95;27.08;96598.75;5102169;28;20457;-70
2022/04/21 11:01:56;;;;;;;7.33;6.63;;;;;;;22.30;26.60;96580.91;5110163;28;20458;-70
2022/04/21 11:04:23;;;;;;;7.70;6.67;;;;;;;22.48;26.30;96583.34;5101143;28;20459;-70
2022/04/21 11:06:54;;;;;;;7.13;6.50;;;;;;;22.44;26.92;96584.88;5105602;28;20462;-69
2022/04/21 11:09:40;;;;;;;8.30;7.23;;;;;;;22.59;26.12;96588.81;5098505;28;20478;-70
2022/04/21 11:12:06;;;;;;;8.20;7.17;;;;;;;22.89;25.77;96583.09;5102182;28;20422;-70
2022/04/21 11:14:36;;;;;;;7.20;6.50;;;;;;;23.04;26.43;96581.69;5110056;28;20446;-69
2022/04/21 11:17:04;;;;;;;7.40;6.70;;;;;;;23.22;26.07;96578.75;5091515;28;20443;-70
2022/04/21 11:19:32;;;;;;;7.03;6.30;;;;;;;23.60;25.85;96581.56;5089394;28;21004;-69
2022/04/21 11:22:00;;;;;;;7.83;7.10;;;;;;;23.86;25.16;96565.78;5086657;28;20423;-71
2022/04/21 11:24:26;;;;;;;6.40;5.90;;;;;;;23.62;25.72;96569.59;5076446;28;20547;-70
2022/04/21 11:26:55;;;;;;;10.50;7.20;;;;;;;23.15;25.65;96565.56;5071885;28;20539;-69
2022/04/21 11:29:21;;;;;;;6.77;6.20;;;;;;;23.08;25.81;96559.56;5080561;28;20181;-69
2022/04/21 11:31:47;;;;;;;6.10;5.60;;;;;;;23.14;26.35;96555.09;5091194;28;20473;-70
2022/04/21 11:34:23;;;;;;;7.07;6.37;;;;;;;23.00;26.20;96552.78;5075637;28;20440;-70
2022/04/21 11:36:52;;;;;;;9.73;5.83;;;;;;;22.96;27.34;96553.53;5072704;28;20221;-70
2022/04/21 11:39:17;;;;;;;6.13;5.63;;;;;;;22.42;26.58;96549.63;5086638;28;20434;-70
2022/04/21 11:41:44;;;;;;;6.10;5.60;;;;;;;22.16;27.22;96551.03;5091607;28;20554;-71
2022/04/21 11:44:19;;;;;;;5.87;5.37;;;;;;;22.20;27.44;96552.97;5083062;28;20182;-69
2022/04/21 11:46:44;;;;;;;6.53;5.40;;;;;;;22.16;27.58;96545.72;5070395;28;20423;-69
2022/04/21 11:49:10;;;;;;;5.53;5.13;;;;;;;22.11;27.70;96554.44;5084554;28;20420;-70
2022/04/21 11:51:35;;;;;;;6.57;5.33;;;;;;;22.13;27.59;96533.66;5092131;28;20196;-71
2022/04/21 11:54:06;;;;;;;5.30;4.80;;;;;;;21.99;27.67;96535.84;5091070;28;20194;-69
2022/04/21 11:56:32;;;;;;;5.10;4.70;;;;;;;21.91;27.50;96531.72;5082550;28;20264;-70
2022/04/21 11:59:04;;;;;;;6.43;4.50;;;;;;;21.94;27.73;96531.22;5078955;28;20434;-69
2022/04/21 12:06:58;;;;;;;4.93;4.50;;;;;;;21.79;28.49;96533.66;5064527;28;20428;-69
2022/04/21 12:09:28;;;;;;;4.47;4.07;;;;;;;21.98;27.94;96520.09;5078937;28;20425;-69
2022/04/21 12:11:56;;;;;;;4.40;4.00;;;;;;;21.84;27.94;96525.72;5084665;28;20273;-69
2022/04/21 12:14:22;;;;;;;5.30;4.63;;;;;;;21.83;28.35;96529.44;5079348;28;20448;-70
2022/04/21 12:16:52;;;;;;;4.20;3.80;;;;;;;21.81;28.08;96520.88;5074124;28;20431;-70
2022/04/21 12:19:40;;;;;;;4.20;3.80;;;;;;;21.66;28.23;96517.97;5089293;28;20446;-70